Time;durP1;ratioP1;P1;durP2;ratioP2;P2;SDS_P1;SDS_P2;PMS_P1;PMS_P2;Temp;Humidity;BMP_temperature;BMP_pressure;BME280_temperature;BME280_humidity;BME280_pressure;Samples;Min_cycle;Max_cycle;Signal;HPM_P1;HPM_P2
2021/10/23 00:00:07;;;;;;;22.30;12.13;;;11.70;87.90;;;;;;5035382;28;20256;-85
2021/10/23 00:02:33;;;;;;;30.40;15.00;;;11.70;87.90;;;;;;5035933;28;20455;-85
2021/10/23 00:04:59;;;;;;;20.27;14.03;;;11.70;87.80;;;;;;5036198;28;20209;-85
2021/10/23 00:07:25;;;;;;;27.50;14.60;;;11.70;87.70;;;;;;5023672;28;20764;-85
2021/10/23 00:09:50;;;;;;;26.90;14.57;;;11.70;87.70;;;;;;5019485;28;20178;-85
2021/10/23 00:12:16;;;;;;;23.23;14.70;;;11.70;87.50;;;;;;5022845;28;20698;-85
2021/10/23 00:14:42;;;;;;;27.97;14.70;;;11.70;87.50;;;;;;5022192;28;20194;-86
2021/10/23 00:17:08;;;;;;;31.33;14.57;;;11.70;87.50;;;;;;5022869;28;20427;-86
2021/10/23 00:19:33;;;;;;;23.60;14.50;;;11.70;87.60;;;;;;5057587;28;20473;-86
2021/10/23 00:21:59;;;;;;;22.73;13.00;;;11.70;87.60;;;;;;5039574;28;20195;-86
2021/10/23 00:24:25;;;;;;;25.03;15.47;;;11.90;87.50;;;;;;5034042;28;20550;-86
2021/10/23 00:26:50;;;;;;;21.80;14.30;;;11.90;87.00;;;;;;5041555;28;20189;-86
2021/10/23 00:29:16;;;;;;;33.73;17.40;;;12.00;86.80;;;;;;5056928;28;20181;-86
2021/10/23 00:31:42;;;;;;;29.97;15.00;;;11.80;86.50;;;;;;5037183;28;20183;-85
2021/10/23 00:34:08;;;;;;;27.40;16.53;;;11.60;86.60;;;;;;5022011;28;20224;-86
2021/10/23 00:36:33;;;;;;;33.20;16.30;;;11.60;87.00;;;;;;5018960;28;20308;-86
2021/10/23 00:38:59;;;;;;;30.77;16.87;;;11.50;87.20;;;;;;5018563;28;20182;-86
2021/10/23 00:41:25;;;;;;;29.87;17.17;;;11.60;87.50;;;;;;5019776;28;20178;-87
2021/10/23 00:43:50;;;;;;;24.83;15.50;;;11.80;87.40;;;;;;5032788;28;20572;-87
2021/10/23 00:46:16;;;;;;;26.60;17.53;;;11.90;87.00;;;;;;5012991;28;20186;-86
2021/10/23 00:48:42;;;;;;;27.17;15.90;;;11.90;86.60;;;;;;5019264;28;20189;-85
2021/10/23 00:51:10;;;;;;;25.65;15.52;;;11.80;86.50;;;;;;5018975;28;20184;-86
2021/10/23 00:53:36;;;;;;;32.45;15.82;;;11.80;86.70;;;;;;5035625;28;20209;-85
2021/10/23 00:56:03;;;;;;;30.20;17.85;;;11.70;86.90;;;;;;5041074;28;20253;-85
2021/10/23 00:58:29;;;;;;;33.00;17.45;;;11.70;87.10;;;;;;5037831;28;20192;-85
2021/10/23 01:00:56;;;;;;;33.38;17.40;;;11.70;87.20;;;;;;5017856;28;20182;-85
2021/10/23 01:03:26;;;;;;;26.88;17.02;;;11.60;87.30;;;;;;5017832;28;20206;-85
2021/10/23 01:05:54;;;;;;;24.95;16.42;;;11.70;87.40;;;;;;5026663;28;20209;-86
2021/10/23 01:08:20;;;;;;;30.08;17.48;;;11.80;87.40;;;;;;5054972;28;20205;-86
2021/10/23 01:10:46;;;;;;;25.73;16.80;;;11.90;87.30;;;;;;5055014;28;20260;-86
2021/10/23 01:13:12;;;;;;;25.20;16.30;;;12.00;87.00;;;;;;5054667;28;20785;-85
2021/10/23 01:15:38;;;;;;;24.45;16.10;;;11.90;86.90;;;;;;5048075;28;20252;-86
2021/10/23 01:18:06;;;;;;;30.08;15.93;;;12.10;86.70;;;;;;5035048;28;20217;-86
2021/10/23 01:20:33;;;;;;;27.85;15.00;;;12.30;85.90;;;;;;5036145;28;20192;-85
2021/10/23 01:22:59;;;;;;;30.33;15.65;;;12.30;85.30;;;;;;5038931;28;20186;-86
2021/10/23 01:25:28;;;;;;;24.90;15.80;;;12.10;85.70;;;;;;5041934;28;20176;-86
2021/10/23 01:27:55;;;;;;;25.90;15.20;;;11.90;85.20;;;;;;5071374;28;20452;-86
2021/10/23 01:30:23;;;;;;;24.88;16.20;;;11.90;85.60;;;;;;5050387;28;20239;-86
2021/10/23 01:32:49;;;;;;;23.40;15.77;;;12.00;85.80;;;;;;5055147;28;20205;-86
2021/10/23 01:35:15;;;;;;;21.45;15.02;;;11.90;85.90;;;;;;5054316;28;20802;-86
2021/10/23 01:37:47;;;;;;;22.77;14.98;;;12.10;86.10;;;;;;5055173;28;20213;-86
2021/10/23 01:40:16;;;;;;;25.63;15.98;;;12.00;85.80;;;;;;5054916;28;20177;-86
2021/10/23 01:42:43;;;;;;;28.08;16.08;;;11.90;86.10;;;;;;5053827;28;20247;-86
2021/10/23 01:45:10;;;;;;;30.35;16.42;;;11.80;86.30;;;;;;5050171;28;20206;-85
2021/10/23 01:47:39;;;;;;;29.65;16.73;;;11.90;86.50;;;;;;5035842;28;20243;-86
2021/10/23 01:50:11;;;;;;;29.35;16.92;;;11.90;86.50;;;;;;5035674;28;20170;-86
2021/10/23 01:52:39;;;;;;;25.40;17.40;;;11.80;86.70;;;;;;5035139;28;20633;-85
2021/10/23 01:55:05;;;;;;;26.85;16.92;;;11.70;86.80;;;;;;5034943;28;20202;-85
2021/10/23 01:57:31;;;;;;;24.65;17.02;;;11.90;87.00;;;;;;5058785;28;20183;-86
2021/10/23 01:59:56;;;;;;;30.30;17.50;;;12.00;86.80;;;;;;5047304;28;20197;-86
2021/10/23 02:02:22;;;;;;;28.83;18.20;;;12.10;86.30;;;;;;5056917;28;20182;-85
2021/10/23 02:04:48;;;;;;;27.77;16.93;;;12.30;85.70;;;;;;5056165;28;20240;-84
2021/10/23 02:07:13;;;;;;;33.63;17.73;;;12.20;84.90;;;;;;5046871;28;20254;-85
2021/10/23 02:09:39;;;;;;;26.60;16.33;;;12.20;84.80;;;;;;5040374;28;20178;-85
2021/10/23 02:12:06;;;;;;;28.37;18.20;;;12.20;84.90;;;;;;5030595;28;20213;-85
2021/10/23 02:14:32;;;;;;;36.55;17.75;;;12.00;85.00;;;;;;5053473;28;20220;-85
2021/10/23 02:16:57;;;;;;;25.50;17.20;;;12.20;85.20;;;;;;5034543;28;20173;-85
2021/10/23 02:19:23;;;;;;;32.40;18.97;;;12.20;85.00;;;;;;5018741;28;20201;-85
2021/10/23 02:21:49;;;;;;;30.80;19.20;;;11.90;85.20;;;;;;5047897;28;20212;-85
2021/10/23 02:24:14;;;;;;;31.00;20.00;;;11.80;85.70;;;;;;5038513;28;20295;-85
2021/10/23 02:26:40;;;;;;;32.20;19.53;;;11.70;86.10;;;;;;5037996;28;20188;-85
2021/10/23 02:29:06;;;;;;;38.53;19.90;;;11.60;86.50;;;;;;5041751;28;20177;-85
2021/10/23 02:31:32;;;;;;;41.08;20.67;;;11.60;86.70;;;;;;5061109;28;20653;-86
2021/10/23 02:33:58;;;;;;;36.37;23.03;;;11.60;87.00;;;;;;5038945;28;20303;-86
2021/10/23 02:36:23;;;;;;;39.03;22.10;;;11.70;87.30;;;;;;5063199;28;20633;-85
2021/10/23 02:38:49;;;;;;;42.03;21.43;;;11.60;87.30;;;;;;5046924;28;20506;-86
2021/10/23 02:41:17;;;;;;;36.27;21.20;;;11.50;87.50;;;;;;5046419;28;20169;-85
2021/10/23 02:43:43;;;;;;;35.67;21.00;;;11.60;87.60;;;;;;5053450;28;20470;-86
2021/10/23 02:46:08;;;;;;;36.57;23.47;;;11.70;87.70;;;;;;5045918;28;20724;-86
2021/10/23 02:48:34;;;;;;;38.70;23.10;;;11.60;87.60;;;;;;5041742;28;20910;-86
2021/10/23 02:51:00;;;;;;;37.80;22.57;;;11.60;87.60;;;;;;5045067;28;20224;-86
2021/10/23 02:53:25;;;;;;;40.40;25.27;;;11.60;87.50;;;;;;5044192;28;20706;-86
2021/10/23 02:55:51;;;;;;;49.47;24.97;;;11.70;87.60;;;;;;5026146;28;20232;-86
2021/10/23 02:58:17;;;;;;;40.97;25.10;;;11.60;87.50;;;;;;5025576;28;20182;-86
2021/10/23 03:00:43;;;;;;;41.60;25.63;;;11.70;87.50;;;;;;5059771;28;20173;-85
2021/10/23 03:03:08;;;;;;;41.10;26.50;;;11.70;87.60;;;;;;5041683;28;20553;-86
2021/10/23 03:05:34;;;;;;;43.70;25.73;;;11.80;87.30;;;;;;5045070;28;21080;-86
2021/10/23 03:08:00;;;;;;;43.00;28.10;;;11.60;87.10;;;;;;5057092;28;20625;-85
2021/10/23 03:10:25;;;;;;;45.47;27.30;;;11.50;87.40;;;;;;5053364;28;20189;-86
2021/10/23 03:12:51;;;;;;;44.80;26.83;;;11.50;87.70;;;;;;5045409;28;20534;-86
2021/10/23 03:15:17;;;;;;;45.20;26.73;;;11.60;87.70;;;;;;5055756;28;20197;-85
2021/10/23 03:17:43;;;;;;;52.77;26.77;;;11.60;87.60;;;;;;5056705;28;20256;-86
2021/10/23 03:20:09;;;;;;;44.50;28.27;;;11.50;87.70;;;;;;5056584;28;20585;-86
2021/10/23 03:22:35;;;;;;;47.20;28.27;;;11.50;87.70;;;;;;5054875;28;20173;-85
2021/10/23 03:25:01;;;;;;;53.70;30.48;;;11.50;87.70;;;;;;5056238;28;20247;-85
2021/10/23 03:27:26;;;;;;;45.20;28.47;;;11.70;87.70;;;;;;5056496;28;20177;-85
2021/10/23 03:29:53;;;;;;;45.10;29.40;;;11.70;87.40;;;;;;5057932;28;20210;-86
2021/10/23 03:32:19;;;;;;;46.75;30.70;;;11.60;87.20;;;;;;5055994;28;20419;-85
2021/10/23 03:34:45;;;;;;;44.05;28.02;;;11.50;87.40;;;;;;5046220;28;20228;-86
2021/10/23 03:37:11;;;;;;;53.37;28.87;;;11.50;87.50;;;;;;5037878;28;20182;-85
2021/10/23 03:39:40;;;;;;;54.20;29.50;;;11.40;87.50;;;;;;5036635;28;20555;-86
2021/10/23 03:42:06;;;;;;;50.00;32.03;;;11.60;87.40;;;;;;5037596;28;20645;-85
2021/10/23 03:44:33;;;;;;;43.77;27.33;;;11.50;87.40;;;;;;5035873;28;20294;-85
2021/10/23 03:46:59;;;;;;;69.78;30.08;;;11.50;87.50;;;;;;5053145;28;20425;-85
2021/10/23 03:49:25;;;;;;;50.73;30.60;;;11.40;87.60;;;;;;5056019;28;20808;-85
2021/10/23 03:51:54;;;;;;;48.03;29.30;;;11.40;87.70;;;;;;5055990;28;20196;-85
2021/10/23 03:54:21;;;;;;;49.78;31.10;;;11.40;87.80;;;;;;5053523;28;20330;-85
2021/10/23 03:56:46;;;;;;;48.37;29.07;;;11.50;87.80;;;;;;5056204;28;20224;-86
2021/10/23 03:59:12;;;;;;;55.77;31.37;;;11.50;87.60;;;;;;5055671;28;20181;-86
2021/10/23 04:01:38;;;;;;;46.27;29.80;;;11.40;87.50;;;;;;5055618;28;20185;-86
2021/10/23 04:04:04;;;;;;;58.47;30.93;;;11.40;87.70;;;;;;5053535;28;20209;-86
2021/10/23 04:06:29;;;;;;;49.93;28.87;;;11.30;87.70;;;;;;5056767;28;20280;-86
2021/10/23 04:08:55;;;;;;;56.13;33.43;;;11.30;87.70;;;;;;5039083;28;20426;-85
2021/10/23 04:11:20;;;;;;;53.87;33.67;;;11.30;87.80;;;;;;5035775;28;20249;-86
2021/10/23 04:13:46;;;;;;;54.93;31.70;;;11.30;87.70;;;;;;5032055;28;20259;-85
2021/10/23 04:16:12;;;;;;;53.80;31.10;;;11.20;87.60;;;;;;5036750;28;20174;-86
2021/10/23 04:18:37;;;;;;;51.60;30.97;;;11.20;87.50;;;;;;5021722;28;20223;-86
2021/10/23 04:21:03;;;;;;;52.73;33.13;;;11.20;87.50;;;;;;5039301;28;20226;-86
2021/10/23 04:23:29;;;;;;;57.60;32.90;;;11.40;87.30;;;;;;5038826;28;20284;-86
2021/10/23 04:25:54;;;;;;;52.23;30.90;;;11.30;86.90;;;;;;5039312;28;20223;-86
2021/10/23 04:28:20;;;;;;;64.40;36.00;;;11.20;87.40;;;;;;5059692;28;20223;-86
2021/10/23 04:30:46;;;;;;;55.47;31.50;;;11.10;86.70;;;;;;5033941;28;20193;-86
2021/10/23 04:33:11;;;;;;;59.83;31.53;;;11.20;86.80;;;;;;5039229;28;20475;-86
2021/10/23 04:35:37;;;;;;;58.60;33.60;;;11.20;86.70;;;;;;5032271;28;20196;-86
2021/10/23 04:38:03;;;;;;;61.03;32.87;;;11.20;86.70;;;;;;5036065;28;20192;-86
2021/10/23 04:40:28;;;;;;;56.33;32.23;;;11.10;86.70;;;;;;5047986;28;20201;-85
2021/10/23 04:42:54;;;;;;;56.40;34.27;;;11.10;86.70;;;;;;5034310;28;20190;-87
2021/10/23 04:45:20;;;;;;;62.10;32.97;;;11.10;86.80;;;;;;5056786;28;20185;-86
2021/10/23 04:47:45;;;;;;;64.10;34.20;;;11.10;86.80;;;;;;5059198;28;20217;-86
2021/10/23 04:50:11;;;;;;;61.90;33.80;;;11.20;86.70;;;;;;5047149;28;20178;-86
2021/10/23 04:52:37;;;;;;;59.13;32.33;;;11.10;86.60;;;;;;5020180;28;20181;-86
2021/10/23 04:55:02;;;;;;;60.93;32.20;;;11.10;86.60;;;;;;5037939;28;20780;-86
2021/10/23 04:57:28;;;;;;;63.97;35.90;;;11.00;86.50;;;;;;5037504;28;20189;-87
2021/10/23 04:59:54;;;;;;;72.03;36.97;;;10.90;86.70;;;;;;5021272;28;20443;-86
2021/10/23 05:02:19;;;;;;;66.10;36.07;;;10.90;86.60;;;;;;5019980;28;20181;-86
2021/10/23 05:04:45;;;;;;;66.90;38.37;;;10.70;86.70;;;;;;5017860;28;20212;-87
2021/10/23 05:07:11;;;;;;;74.17;36.73;;;10.60;87.00;;;;;;5018109;28;20202;-86
2021/10/23 05:09:37;;;;;;;74.90;38.00;;;10.60;87.30;;;;;;5018024;28;20448;-87
2021/10/23 05:12:03;;;;;;;66.67;35.27;;;10.50;87.50;;;;;;5037391;28;20801;-86
2021/10/23 05:14:28;;;;;;;73.37;36.50;;;10.40;87.60;;;;;;5041629;28;20209;-86
2021/10/23 05:16:54;;;;;;;74.43;38.77;;;10.50;87.80;;;;;;5018168;28;20478;-87
2021/10/23 05:19:19;;;;;;;72.77;37.20;;;10.30;87.80;;;;;;5020144;28;20182;-86
2021/10/23 05:21:45;;;;;;;64.50;37.20;;;10.40;88.00;;;;;;5020945;28;20186;-86
2021/10/23 05:24:11;;;;;;;87.90;40.37;;;10.40;88.10;;;;;;5019066;28;20205;-86
2021/10/23 05:26:37;;;;;;;86.90;38.47;;;10.40;88.00;;;;;;5034731;28;20177;-85
2021/10/23 05:29:02;;;;;;;79.10;41.23;;;10.20;88.10;;;;;;5040169;28;20190;-86
2021/10/23 05:31:28;;;;;;;92.27;39.70;;;10.20;88.40;;;;;;5039366;28;20174;-86
2021/10/23 05:33:54;;;;;;;92.90;39.13;;;10.20;88.50;;;;;;5056415;28;20205;-86
2021/10/23 05:36:19;;;;;;;69.83;36.57;;;10.10;88.60;;;;;;5039080;28;20185;-86
2021/10/23 05:38:45;;;;;;;81.27;39.10;;;10.20;88.70;;;;;;5020691;28;20181;-86
2021/10/23 05:41:11;;;;;;;85.47;40.23;;;10.10;88.70;;;;;;5019480;28;20652;-86
2021/10/23 05:43:36;;;;;;;83.57;39.90;;;10.00;88.70;;;;;;5025103;28;20676;-86
2021/10/23 05:46:02;;;;;;;79.23;36.47;;;10.10;89.00;;;;;;5057083;28;20185;-86
2021/10/23 05:48:28;;;;;;;80.30;39.40;;;10.20;88.70;;;;;;5025846;28;20239;-86
2021/10/23 05:50:53;;;;;;;80.23;36.87;;;10.20;88.50;;;;;;5057672;28;20679;-86
2021/10/23 05:53:19;;;;;;;75.60;37.17;;;10.30;88.40;;;;;;5023940;28;20715;-87
2021/10/23 05:55:45;;;;;;;75.80;35.43;;;10.20;88.20;;;;;;5021166;28;20726;-86
2021/10/23 05:58:10;;;;;;;78.60;36.03;;;10.30;88.10;;;;;;5038205;28;20633;-86
2021/10/23 06:00:37;;;;;;;72.73;33.27;;;10.30;87.80;;;;;;5037957;28;20200;-87
2021/10/23 06:03:03;;;;;;;71.05;34.28;;;10.50;87.50;;;;;;5029634;28;20189;-86
2021/10/23 06:05:30;;;;;;;64.53;33.80;;;10.60;87.30;;;;;;5026055;28;20193;-85
2021/10/23 06:07:55;;;;;;;61.25;33.08;;;10.50;86.00;;;;;;5054659;28;20181;-86
2021/10/23 06:10:22;;;;;;;73.73;33.53;;;10.50;85.80;;;;;;5054096;28;20178;-85
2021/10/23 06:12:49;;;;;;;73.32;33.33;;;10.50;85.70;;;;;;5052321;28;20454;-85
2021/10/23 06:15:15;;;;;;;69.82;34.58;;;10.50;85.20;;;;;;5032520;28;20202;-85
2021/10/23 06:17:41;;;;;;;64.00;34.03;;;10.40;85.00;;;;;;5032725;28;20182;-85
2021/10/23 06:20:07;;;;;;;76.03;34.60;;;10.30;85.00;;;;;;5033459;28;20178;-84
2021/10/23 06:22:33;;;;;;;71.20;36.10;;;10.10;85.20;;;;;;5033732;28;20482;-84
2021/10/23 06:24:58;;;;;;;67.80;34.57;;;10.10;85.70;;;;;;5034525;28;20661;-85
2021/10/23 06:27:25;;;;;;;65.83;34.90;;;10.20;85.80;;;;;;5053151;28;20256;-84
2021/10/23 06:29:50;;;;;;;63.75;32.90;;;10.20;85.80;;;;;;5071260;28;20250;-84
2021/10/23 06:32:16;;;;;;;67.70;32.17;;;10.20;85.80;;;;;;5050927;28;20657;-83
2021/10/23 06:34:42;;;;;;;69.90;33.70;;;10.10;85.90;;;;;;5061317;28;20204;-83
2021/10/23 06:37:09;;;;;;;64.77;34.83;;;10.20;86.00;;;;;;5064325;28;20400;-82
2021/10/23 06:39:35;;;;;;;68.82;34.90;;;10.30;85.80;;;;;;5061426;28;20473;-83
2021/10/23 06:42:01;;;;;;;66.78;37.15;;;10.20;85.80;;;;;;5060398;28;20215;-83
2021/10/23 06:44:27;;;;;;;68.68;37.63;;;10.10;86.10;;;;;;5060308;28;20209;-83
2021/10/23 06:46:52;;;;;;;91.27;42.53;;;10.00;86.40;;;;;;5049923;28;20192;-83
2021/10/23 06:49:18;;;;;;;85.27;39.37;;;10.10;87.70;;;;;;5045673;28;20193;-83
2021/10/23 06:51:44;;;;;;;89.83;43.50;;;10.10;87.20;;;;;;5040572;28;20189;-83
2021/10/23 06:54:09;;;;;;;87.00;44.30;;;10.30;87.40;;;;;;5060636;28;20232;-83
2021/10/23 06:56:35;;;;;;;88.87;43.70;;;10.60;87.20;;;;;;5058588;28;20181;-84
2021/10/23 06:59:01;;;;;;;96.45;44.17;;;10.60;86.20;;;;;;5059708;28;20173;-83
2021/10/23 07:01:27;;;;;;;96.23;47.10;;;10.50;85.20;;;;;;5055359;28;20182;-83
2021/10/23 07:03:54;;;;;;;96.33;48.87;;;10.70;84.80;;;;;;5038918;28;20197;-83
2021/10/23 07:06:20;;;;;;;91.38;48.80;;;10.70;84.40;;;;;;5036459;28;20198;-84
2021/10/23 07:08:46;;;;;;;90.17;47.03;;;10.70;84.10;;;;;;5021289;28;20250;-83
2021/10/23 07:11:11;;;;;;;93.22;47.58;;;10.70;84.20;;;;;;5019605;28;20245;-82
2021/10/23 07:13:37;;;;;;;93.97;44.70;;;10.60;84.00;;;;;;5034571;28;20213;-82
2021/10/23 07:16:03;;;;;;;78.80;41.90;;;10.40;84.20;;;;;;5054655;28;20185;-82
2021/10/23 07:18:29;;;;;;;86.65;45.13;;;10.50;84.70;;;;;;5040589;28;20177;-82
2021/10/23 07:20:55;;;;;;;75.57;41.33;;;10.60;84.80;;;;;;5040683;28;20173;-81
2021/10/23 07:23:20;;;;;;;84.77;38.97;;;10.70;84.70;;;;;;5055653;28;20228;-83
2021/10/23 07:25:47;;;;;;;67.33;37.07;;;10.70;84.50;;;;;;5043911;28;20177;-83
2021/10/23 07:28:23;;;;;;;61.78;34.08;;;10.80;84.40;;;;;;5025841;28;20889;-83
2021/10/23 07:30:49;;;;;;;69.78;36.63;;;11.00;84.30;;;;;;5040701;28;20177;-83
2021/10/23 07:33:15;;;;;;;58.70;31.53;;;11.00;84.50;;;;;;5040999;28;20214;-83
2021/10/23 07:35:40;;;;;;;56.27;28.60;;;11.00;84.90;;;;;;5023720;28;20181;-83
2021/10/23 07:38:07;;;;;;;48.77;30.40;;;11.20;85.10;;;;;;5041806;28;20493;-83
2021/10/23 07:40:33;;;;;;;49.63;24.90;;;11.40;84.90;;;;;;5025140;28;20174;-82
2021/10/23 07:42:59;;;;;;;52.63;28.00;;;11.40;84.70;;;;;;5037229;28;20211;-82
2021/10/23 07:45:24;;;;;;;46.50;25.73;;;11.70;84.40;;;;;;5046034;28;20177;-82
2021/10/23 07:47:50;;;;;;;38.37;24.47;;;11.60;82.40;;;;;;5045380;28;20177;-82
2021/10/23 07:50:16;;;;;;;33.63;23.10;;;11.70;82.20;;;;;;5024784;28;20174;-82
2021/10/23 07:52:41;;;;;;;34.13;24.23;;;11.90;82.00;;;;;;5024441;28;20181;-80
2021/10/23 07:55:11;;;;;;;43.30;24.97;;;12.00;81.50;;;;;;5023185;28;20217;-81
2021/10/23 07:57:38;;;;;;;32.67;21.95;;;12.10;81.00;;;;;;5028952;28;20424;-81
2021/10/23 08:00:06;;;;;;;30.30;20.75;;;12.00;80.40;;;;;;5023654;28;20189;-81
2021/10/23 08:02:32;;;;;;;29.77;18.40;;;11.90;80.50;;;;;;5026261;28;20336;-81
2021/10/23 08:04:58;;;;;;;28.03;19.93;;;11.80;80.70;;;;;;5025071;28;20644;-81
2021/10/23 08:07:24;;;;;;;27.57;18.43;;;11.90;81.10;;;;;;5063321;28;20427;-83
2021/10/23 08:09:50;;;;;;;40.63;21.50;;;12.00;81.20;;;;;;5068856;28;20492;-82
2021/10/23 08:12:15;;;;;;;34.77;20.17;;;12.10;80.90;;;;;;5051174;28;20415;-82
2021/10/23 08:14:41;;;;;;;32.83;19.67;;;12.10;81.00;;;;;;5067285;28;20550;-82
2021/10/23 08:17:07;;;;;;;28.67;18.60;;;12.00;80.60;;;;;;5069930;28;20189;-81
2021/10/23 08:19:34;;;;;;;31.50;19.03;;;11.60;80.90;;;;;;5070814;28;20207;-81
2021/10/23 08:22:00;;;;;;;28.95;19.75;;;11.50;81.80;;;;;;5065624;28;20177;-82
2021/10/23 08:24:26;;;;;;;28.75;18.17;;;11.80;82.40;;;;;;5058363;28;20259;-81
2021/10/23 08:26:52;;;;;;;29.43;18.37;;;11.80;82.60;;;;;;5056091;28;20180;-81
2021/10/23 08:29:17;;;;;;;29.37;18.10;;;11.90;82.60;;;;;;5040978;28;20177;-81
2021/10/23 08:31:43;;;;;;;25.37;17.93;;;11.90;82.40;;;;;;5044858;28;20269;-81
2021/10/23 08:34:09;;;;;;;32.53;19.63;;;12.10;82.20;;;;;;5019963;28;20586;-81
2021/10/23 08:36:35;;;;;;;39.60;17.80;;;12.10;82.40;;;;;;5004574;28;20285;-82
2021/10/23 08:39:01;;;;;;;24.67;18.00;;;12.10;82.50;;;;;;5020959;28;20178;-82
2021/10/23 08:41:26;;;;;;;23.70;17.87;;;12.30;82.60;;;;;;5020775;28;20412;-81
2021/10/23 08:43:52;;;;;;;29.60;19.63;;;12.50;81.70;;;;;;5035008;28;20220;-81
2021/10/23 08:46:21;;;;;;;29.08;17.02;;;12.60;80.90;;;;;;5058896;28;20507;-82
2021/10/23 08:48:55;;;;;;;22.77;17.05;;;12.50;80.90;;;;;;5040577;28;20185;-82
2021/10/23 08:51:22;;;;;;;24.58;15.82;;;12.40;81.10;;;;;;5040366;28;20207;-82
2021/10/23 08:53:52;;;;;;;39.08;20.40;;;12.30;80.80;;;;;;5039717;28;20684;-82
2021/10/23 08:56:18;;;;;;;1169.40;235.85;;;12.10;81.10;;;;;;5040858;28;20199;-82
2021/10/23 08:58:44;;;;;;;59.53;21.85;;;12.40;81.40;;;;;;5037609;28;20166;-82
2021/10/23 09:01:13;;;;;;;372.33;60.90;;;12.40;80.90;;;;;;5040063;28;20193;-81
2021/10/23 09:03:43;;;;;;;1432.13;320.45;;;12.30;81.20;;;;;;5039135;28;20205;-82
2021/10/23 09:06:28;;;;;;;660.15;118.35;;;12.50;81.20;;;;;;5054517;28;20219;-81
2021/10/23 09:09:14;;;;;;;30.75;16.67;;;12.70;81.00;;;;;;5044864;28;20212;-81
2021/10/23 09:11:43;;;;;;;103.28;24.95;;;12.70;80.10;;;;;;5043741;28;20189;-81
2021/10/23 09:14:37;;;;;;;28.65;17.95;;;12.80;79.90;;;;;;5022979;28;20237;-81
2021/10/23 09:17:08;;;;;;;23.90;16.55;;;12.50;79.70;;;;;;5036505;28;20664;-82
2021/10/23 09:19:41;;;;;;;1098.38;220.82;;;12.60;80.10;;;;;;5037674;28;20216;-82
2021/10/23 09:22:29;;;;;;;695.00;137.25;;;12.80;80.20;;;;;;5044761;28;20181;-82
2021/10/23 09:25:17;;;;;;;482.73;89.18;;;12.80;79.80;;;;;;5035676;28;20664;-81
2021/10/23 09:27:52;;;;;;;207.15;38.63;;;12.90;80.30;;;;;;5057970;28;20196;-81
2021/10/23 09:30:48;;;;;;;811.13;142.75;;;12.90;80.00;;;;;;5038399;28;20181;-81
2021/10/23 09:33:21;;;;;;;359.05;58.53;;;13.10;79.70;;;;;;5037382;28;20206;-81
2021/10/23 09:35:55;;;;;;;38.47;16.50;;;13.00;79.40;;;;;;5020378;28;20196;-81
2021/10/23 09:38:26;;;;;;;30.67;16.50;;;12.80;79.20;;;;;;5020261;28;20285;-81
2021/10/23 09:40:54;;;;;;;256.02;45.97;;;12.30;80.40;;;;;;5020145;28;20544;-81
2021/10/23 09:43:29;;;;;;;37.08;17.02;;;12.50;81.30;;;;;;5020453;28;20212;-81
2021/10/23 09:45:58;;;;;;;26.20;15.43;;;12.20;81.20;;;;;;5019843;28;20245;-81
2021/10/23 09:48:31;;;;;;;21.65;16.67;;;12.30;81.80;;;;;;5031951;28;20188;-81
2021/10/23 09:51:16;;;;;;;21.00;16.27;;;12.30;81.80;;;;;;5061958;28;20181;-82
2021/10/23 09:53:43;;;;;;;23.70;14.98;;;12.10;81.90;;;;;;5042422;28;20220;-82
2021/10/23 09:56:13;;;;;;;354.48;61.47;;;12.20;82.30;;;;;;5041572;28;20177;-81
2021/10/23 09:58:50;;;;;;;181.60;34.00;;;12.60;82.30;;;;;;5042246;28;20577;-80
2021/10/23 10:01:16;;;;;;;121.85;24.00;;;12.80;82.20;;;;;;5026794;28;20185;-80
2021/10/23 10:03:43;;;;;;;157.40;30.00;;;12.80;80.70;;;;;;5038628;28;20198;-81
2021/10/23 10:06:11;;;;;;;22.30;13.57;;;12.80;80.70;;;;;;5037191;28;20213;-81
2021/10/23 10:08:38;;;;;;;35.15;15.63;;;12.50;80.40;;;;;;5026068;28;20216;-81
2021/10/23 10:11:04;;;;;;;575.33;94.15;;;12.30;80.80;;;;;;5037655;28;20192;-81
2021/10/23 10:13:32;;;;;;;707.08;126.03;;;12.70;81.20;;;;;;5037092;28;20217;-81
2021/10/23 10:15:58;;;;;;;204.82;39.03;;;13.00;81.00;;;;;;5040553;28;20675;-81
2021/10/23 10:18:25;;;;;;;32.13;15.23;;;13.40;80.60;;;;;;5058466;28;20173;-81
2021/10/23 10:20:56;;;;;;;209.32;37.00;;;13.60;80.10;;;;;;5039237;28;20183;-81
2021/10/23 10:23:38;;;;;;;32.80;14.75;;;13.90;79.50;;;;;;5057598;28;20228;-81
2021/10/23 10:26:25;;;;;;;30.60;14.38;;;13.70;77.40;;;;;;5057853;28;20675;-81
2021/10/23 10:31:58;;;;;;;129.98;28.83;;;13.10;78.00;;;;;;5045803;28;20201;-81
2021/10/23 10:43:09;;;;;;;202.70;37.25;;;13.10;79.30;;;;;;5055068;28;20186;-84
2021/10/23 10:45:41;;;;;;;245.25;41.17;;;12.80;78.70;;;;;;5048038;28;20174;-85
2021/10/23 10:48:14;;;;;;;74.28;18.35;;;13.00;79.30;;;;;;5053480;28;20165;-85
2021/10/23 10:50:50;;;;;;;159.85;30.05;;;13.10;79.20;;;;;;5037516;28;20189;-85
2021/10/23 10:53:17;;;;;;;253.40;44.88;;;13.30;79.10;;;;;;5038930;28;20212;-83
2021/10/23 10:55:45;;;;;;;256.20;41.28;;;13.50;79.20;;;;;;5056376;28;20177;-84
2021/10/23 10:58:12;;;;;;;19.33;11.90;;;13.60;78.80;;;;;;5042005;28;20177;-83
2021/10/23 11:00:48;;;;;;;173.40;27.83;;;13.50;78.60;;;;;;5040510;28;20189;-85
2021/10/23 11:04:06;;;;;;;87.75;20.75;;;13.30;77.40;;;;;;5037735;28;20557;-85
2021/10/23 11:06:32;;;;;;;25.02;12.15;;;13.50;77.60;;;;;;4956280;29;20280;-87
2021/10/23 11:09:16;;;;;;;17.50;10.88;;;13.70;77.30;;;;;;5030157;28;20208;-85
2021/10/23 11:11:47;;;;;;;17.80;10.93;;;13.70;77.10;;;;;;5038882;28;20719;-85
2021/10/23 11:14:23;;;;;;;16.80;10.45;;;13.60;77.10;;;;;;5021032;28;20309;-85
2021/10/23 11:16:57;;;;;;;19.58;10.43;;;13.50;77.30;;;;;;5026707;28;20204;-86
2021/10/23 11:19:24;;;;;;;20.27;12.38;;;13.40;77.50;;;;;;5022340;28;20176;-85
2021/10/23 11:22:12;;;;;;;13.02;9.98;;;13.40;77.90;;;;;;5057189;28;20644;-84
2021/10/23 11:24:42;;;;;;;15.23;10.93;;;13.70;77.90;;;;;;5048513;28;20530;-85
2021/10/23 11:27:22;;;;;;;19.30;11.25;;;13.90;77.40;;;;;;5056314;28;20256;-85
2021/10/23 11:29:47;;;;;;;771.47;128.57;;;13.70;76.20;;;;;;5052189;28;20614;-85
2021/10/23 11:32:14;;;;;;;625.17;111.67;;;13.70;77.00;;;;;;5040034;28;20227;-85
2021/10/23 11:34:40;;;;;;;104.13;21.27;;;14.00;76.20;;;;;;5040032;28;20217;-85
2021/10/23 11:37:07;;;;;;;103.20;18.17;;;14.40;75.90;;;;;;5039418;28;20184;-85
2021/10/23 11:39:37;;;;;;;395.85;49.72;;;14.40;74.80;;;;;;5039998;28;20169;-85
2021/10/23 11:42:21;;;;;;;567.83;109.45;;;14.40;74.50;;;;;;5040278;28;20177;-86
2021/10/23 11:45:09;;;;;;;936.20;190.73;;;14.30;74.30;;;;;;5039711;28;20565;-86
2021/10/23 11:47:35;;;;;;;230.77;39.15;;;14.50;74.40;;;;;;5023637;28;20194;-85
2021/10/23 11:50:07;;;;;;;104.32;20.38;;;14.60;73.30;;;;;;5020089;28;20186;-84
2021/10/23 11:52:34;;;;;;;488.63;72.78;;;14.30;73.60;;;;;;5020570;28;20184;-85
2021/10/23 11:55:04;;;;;;;135.02;24.88;;;14.40;73.20;;;;;;5039936;28;20221;-85
2021/10/23 11:58:00;;;;;;;692.97;114.60;;;14.60;72.40;;;;;;5021561;28;20209;-85
2021/10/23 12:00:30;;;;;;;224.77;40.25;;;14.40;73.00;;;;;;5023732;28;20182;-85
2021/10/23 12:02:59;;;;;;;257.67;38.63;;;14.40;72.80;;;;;;5039642;28;20181;-85
2021/10/23 12:05:42;;;;;;;62.70;13.68;;;14.70;72.90;;;;;;5025403;28;20605;-85
2021/10/23 12:08:08;;;;;;;465.02;76.97;;;14.50;71.70;;;;;;5038682;28;20185;-85
2021/10/23 12:10:53;;;;;;;855.58;141.57;;;14.60;72.10;;;;;;5038725;28;20229;-85
2021/10/23 12:13:19;;;;;;;14.13;8.27;;;14.90;71.90;;;;;;5061227;28;20679;-85
2021/10/23 12:16:05;;;;;;;14.10;6.90;;;14.50;71.10;;;;;;5057503;28;20178;-85
2021/10/23 12:18:34;;;;;;;15.75;6.90;;;14.50;71.60;;;;;;5057566;28;20706;-85
2021/10/23 12:21:41;;;;;;;11.15;7.00;;;14.70;71.50;;;;;;5057497;28;20184;-85
2021/10/23 12:24:22;;;;;;;12.10;7.75;;;14.90;71.80;;;;;;5051722;28;20228;-85
2021/10/23 12:27:09;;;;;;;9.93;6.82;;;15.20;71.20;;;;;;5055412;28;20264;-85
2021/10/23 12:29:45;;;;;;;12.43;6.63;;;15.20;70.80;;;;;;5057077;28;20177;-85
2021/10/23 12:32:16;;;;;;;11.50;5.85;;;15.00;70.90;;;;;;5069016;28;20196;-85
2021/10/23 12:34:50;;;;;;;674.97;107.78;;;15.10;70.90;;;;;;5056089;28;20355;-85
2021/10/23 12:37:25;;;;;;;383.35;52.42;;;15.30;70.20;;;;;;5056766;28;20181;-85
2021/10/23 12:40:20;;;;;;;12.60;6.85;;;15.40;68.70;;;;;;5055855;28;20177;-85
2021/10/23 12:42:58;;;;;;;47.95;9.48;;;15.40;68.50;;;;;;5052566;28;20260;-85